Date,TemperatureHighF,TemperatureAvgF,TemperatureLowF,DewpointHighF,DewpointAvgF,DewpointLowF,HumidityHigh,HumidityAvg,HumidityLow,PressureMaxIn,PressureMinIn,WindSpeedMaxMPH,WindSpeedAvgMPH,GustSpeedMaxMPH,PrecipitationSumIn
2013-1-1,36.6,30.9,21.7,28.3,22.1,11.8,85,70,57,29.90,29.71,19,2,19,0.00
2013-1-2,30.4,21.3,13.6,17.4,11.3,6.6,83,65,56,30.06,29.87,18,2,18,0.00
2013-1-3,23.3,14.8,6.3,10.5,3.1,-2.7,77,60,43,30.11,29.97,17,1,17,0.00
2013-1-4,38.0,26.1,14.3,25.8,19.3,10.0,92,76,56,29.97,29.80,20,1,20,0.00
2013-1-5,40.2,31.1,23.6,26.2,22.3,19.5,85,70,51,30.24,29.84,19,1,19,0.01
2013-1-6,41.3,31.7,23.6,32.3,26.7,19.8,93,82,66,30.21,29.92,13,0,13,0.03
2013-1-7,38.3,30.6,22.9,30.4,26.4,20.4,98,84,70,30.39,29.94,14,1,18,0.01
2013-1-8,45.3,33.1,21.1,32.7,27.3,18.9,95,80,60,30.36,30.24,18,1,18,0.01
2013-1-9,42.5,34.5,23.8,38.4,30.4,21.6,95,85,73,30.37,29.98,15,1,15,0.01
2013-1-10,45.0,40.4,34.4,33.4,27.1,25.1,73,59,48,30.50,30.03,22,3,22,0.00
2013-1-11,41.6,35.2,27.7,35.0,29.8,23.2,93,81,70,30.50,30.21,5,0,5,0.14
2013-1-12,45.7,41.5,36.6,44.6,40.3,34.8,97,95,93,30.22,30.10,5,0,5,0.02
2013-1-13,50.7,46.4,42.0,50.2,45.5,40.9,98,97,96,30.14,29.99,18,1,18,0.02
2013-1-14,59.0,51.8,43.2,54.5,46.0,31.4,98,82,51,30.24,29.86,14,2,14,0.00
2013-1-15,43.1,37.9,33.8,34.0,31.0,28.3,88,76,65,30.29,30.18,9,0,9,0.04
2013-1-16,35.9,33.9,32.6,33.3,31.4,28.6,95,90,76,30.22,29.77,6,0,6,0.24
2013-1-17,41.1,34.8,30.4,34.4,29.8,20.3,96,83,65,30.07,29.82,17,1,17,0.12
2013-1-18,30.9,22.8,16.6,21.2,6.6,0.1,72,50,37,30.44,30.02,11,2,18,0.00
2013-1-19,46.3,36.6,16.8,34.9,27.1,9.4,83,69,55,30.39,29.89,35,3,35,0.07
2013-1-20,53.8,42.9,28.7,37.2,29.7,12.4,80,61,43,29.90,29.52,24,4,24,0.00
2013-1-21,28.7,25.7,21.4,22.1,12.8,7.9,90,59,44,30.08,29.75,14,1,14,0.00
2013-1-22,25.1,20.7,13.0,22.8,11.1,1.6,99,68,45,30.05,29.71,17,2,17,0.00
2013-1-23,15.6,11.2,7.1,2.8,-2.5,-5.8,70,54,42,30.12,30.03,19,1,19,0.00
2013-1-24,18.6,11.0,3.7,-0.7,-4.9,-9.0,65,49,38,30.19,30.02,20,3,20,0.00
2013-1-25,25.1,16.3,7.4,13.1,-0.7,-6.7,81,47,32,30.27,30.03,15,1,15,0.00
2013-1-26,23.5,17.4,11.6,13.3,6.9,-1.2,86,65,42,30.20,29.97,19,2,19,0.00
2013-1-27,28.6,19.8,11.0,9.0,4.4,1.1,71,52,38,30.43,30.19,19,2,19,0.00
2013-1-28,32.4,23.3,13.0,28.1,14.3,2.6,93,70,40,30.42,29.98,9,0,9,0.01
2013-1-29,34.4,31.4,27.6,32.8,29.4,25.8,100,92,88,30.18,29.98,5,0,5,0.13
2013-1-30,58.7,48.3,32.5,57.0,47.1,31.0,98,96,93,30.14,29.48,39,3,39,0.24
2013-1-31,61.5,48.8,32.3,58.2,40.8,19.4,97,75,50,29.58,28.99,38,5,38,0.72
2013-2-1,32.6,28.6,22.6,20.5,13.2,6.8,66,53,39,30.06,29.58,19,2,19,0.01
2013-2-2,29.2,24.2,17.7,17.5,10.9,5.3,67,57,45,30.24,30.03,16,1,16,0.00
2013-2-3,28.9,25.2,21.8,23.7,21.3,17.8,98,85,68,30.04,29.69,16,1,16,0.00
2013-2-4,29.5,23.9,18.2,20.9,14.2,9.5,88,67,47,29.93,29.69,21,2,21,0.00
2013-2-5,27.6,24.7,21.1,23.2,16.3,11.2,90,70,58,30.01,29.91,9,0,9,0.00
2013-2-6,38.2,30.1,25.7,28.3,22.2,9.0,100,74,48,30.26,29.89,15,1,15,0.05
2013-2-7,28.0,24.0,18.4,19.5,9.7,6.0,76,54,42,30.50,30.26,13,0,13,0.00
2013-2-8,32.7,30.6,25.6,31.2,27.6,19.0,96,89,75,30.46,29.51,17,2,17,0.01
2013-2-9,28.5,19.1,13.3,27.5,16.5,9.6,96,89,84,30.15,29.45,0,0,0,0.00
2013-2-10,30.6,20.0,10.2,22.7,14.9,6.1,88,80,68,30.37,30.15,1,0,5,0.00
2013-2-11,43.7,31.8,16.1,42.9,30.4,13.4,97,94,88,30.34,29.58,16,1,16,0.36
2013-2-12,44.6,38.1,31.9,41.1,31.4,26.2,97,78,57,29.87,29.59,16,2,18,0.05
2013-2-13,41.4,32.8,25.5,27.8,25.7,21.7,88,76,55,29.86,29.66,10,0,10,0.00
2013-2-14,41.2,33.7,27.4,29.0,26.2,23.4,92,75,51,29.99,29.69,11,1,11,0.04
2013-2-15,47.2,36.4,26.2,37.2,31.3,23.6,96,83,58,30.01,29.91,22,1,22,0.01
2013-2-16,35.9,33.3,31.1,32.4,30.9,28.0,100,91,83,29.93,29.65,11,1,11,0.03
2013-2-17,31.1,22.6,18.0,28.0,15.0,4.0,91,74,50,29.66,29.33,27,7,27,0.01
2013-2-18,31.0,22.2,14.7,8.9,5.3,2.9,60,48,35,30.14,29.63,26,4,26,0.00
2013-2-19,47.4,35.0,19.6,42.5,26.2,5.9,100,71,52,30.15,29.56,18,1,18,0.10
2013-2-20,41.8,32.7,25.3,40.8,23.2,13.5,96,69,48,29.76,29.52,22,3,22,0.00
2013-2-21,32.1,27.5,24.2,18.9,16.4,13.7,73,63,51,30.13,29.75,20,3,22,0.00
2013-2-22,36.6,31.3,26.1,27.8,24.1,18.1,83,75,68,30.35,30.13,14,2,14,0.00
2013-2-23,39.1,34.3,30.7,34.6,30.1,26.5,95,85,72,30.32,29.88,10,0,10,0.00
2013-2-24,39.4,35.6,30.8,38.6,34.6,29.8,97,96,95,29.88,29.64,12,2,12,0.00
2013-2-25,38.7,33.2,28.9,34.0,30.3,27.9,97,89,72,30.23,29.85,10,0,10,0.00
2013-2-26,42.7,34.5,25.9,36.1,29.2,24.2,96,82,62,30.32,30.13,7,0,7,0.01
2013-2-27,41.5,40.0,37.5,41.0,38.7,34.0,100,95,87,30.13,29.52,21,3,21,1.25
2013-2-28,44.9,38.3,34.4,39.1,36.0,33.6,97,92,78,29.63,29.50,5,0,5,0.00
2013-3-1,40.4,37.0,34.4,35.2,32.7,29.7,94,85,74,29.66,29.50,10,1,10,0.00
2013-3-2,42.9,37.3,32.5,33.0,29.6,27.0,85,74,61,29.65,29.60,10,1,11,0.00
2013-3-3,43.1,36.5,32.3,33.3,29.8,26.7,93,77,62,29.62,29.53,12,1,12,0.00
2013-3-4,40.9,34.3,29.5,30.5,26.4,23.3,93,73,55,29.70,29.55,20,4,20,0.01
2013-3-5,42.4,36.2,31.9,34.8,29.6,24.4,92,77,69,30.04,29.70,16,2,16,0.00
2013-3-6,39.7,37.3,32.8,36.5,34.0,30.7,100,88,76,30.08,30.00,23,5,23,0.05
2013-3-7,36.4,33.8,32.2,33.9,32.1,30.9,96,94,84,30.01,29.92,24,7,24,0.58
2013-3-8,37.4,33.2,31.5,33.7,31.4,30.1,97,93,76,30.10,29.87,20,2,20,0.10
2013-3-9,37.9,34.5,28.9,32.0,29.8,27.4,95,83,75,30.32,30.09,20,3,20,0.87
2013-3-10,40.2,34.1,29.2,34.3,30.9,27.8,96,88,76,30.39,30.30,7,1,7,0.34
2013-3-11,48.7,39.8,31.4,40.3,36.1,29.6,100,87,67,30.31,30.14,13,1,14,0.03
2013-3-12,54.0,48.0,39.9,52.2,46.6,38.2,97,95,86,30.16,29.72,21,1,21,0.59
2013-3-13,51.4,44.1,32.5,50.4,35.0,23.0,97,73,42,29.77,29.67,17,2,17,0.02
2013-3-14,37.1,31.8,23.5,25.9,18.5,8.9,76,58,44,29.81,29.68,19,3,19,0.00
2013-3-15,39.9,30.3,21.1,28.5,15.2,8.6,81,55,31,29.85,29.63,25,2,25,0.00
2013-3-16,39.2,33.3,28.0,26.8,19.2,10.3,81,58,32,29.85,29.66,14,1,14,0.00
2013-3-17,38.8,33.0,26.3,21.5,16.4,8.8,71,51,32,30.29,29.85,19,2,19,0.00
2013-3-18,36.9,30.8,21.8,22.8,16.1,5.6,66,54,45,30.44,30.23,10,1,10,0.00
2013-3-19,37.9,34.1,31.3,36.8,29.4,20.9,96,84,65,30.23,29.53,20,4,20,0.95
2013-3-20,38.6,34.5,28.1,33.9,26.1,20.1,96,73,48,29.80,29.66,17,2,17,0.02
2013-3-21,37.2,31.4,29.6,27.6,24.1,20.4,90,75,59,29.81,29.59,7,0,7,0.00
2013-3-22,36.4,30.3,29.7,27.1,26.9,24.6,90,87,65,29.65,29.58,11,1,11,0.01
2013-3-23,42.5,36.3,31.0,25.0,15.0,0.0,76,35,44,29.75,29.61,21,4,21,0.01
2013-3-24,46.6,36.4,28.8,29.4,25.4,21.2,86,65,46,29.80,29.71,15,2,15,0.00
2013-3-25,44.9,37.0,30.7,35.9,31.3,26.8,92,80,59,29.75,29.49,15,2,15,0.01
2013-3-26,48.2,40.2,33.3,33.6,28.1,24.0,91,64,42,29.75,29.48,15,2,15,0.03
2013-3-27,52.4,42.0,30.6,34.9,27.4,22.1,76,57,38,29.83,29.72,14,2,14,0.00
2013-3-28,47.5,41.2,36.8,37.1,34.1,29.8,93,77,53,30.00,29.83,14,1,14,0.03
2013-3-29,55.7,44.5,32.7,40.1,34.9,28.8,89,70,42,30.02,29.94,13,1,13,0.01
2013-3-30,55.4,44.8,33.0,34.9,31.6,24.8,85,62,33,30.08,29.99,14,1,14,0.00
2013-3-31,59.4,43.5,27.5,42.0,30.9,24.7,94,66,30,30.11,29.74,23,2,23,0.04
2013-4-1,61.4,47.6,35.0,47.0,40.2,16.3,96,77,45,29.78,29.50,22,3,22,0.21
2013-4-2,42.7,34.5,28.1,22.3,16.8,13.2,63,49,34,29.93,29.77,21,3,21,0.00
2013-4-3,46.2,36.8,29.6,19.3,17.0,14.4,62,46,28,30.13,29.91,25,4,25,0.00
2013-4-4,54.6,40.1,29.0,31.4,21.5,16.3,78,49,26,30.27,30.05,15,2,16,0.00
2013-4-5,57.7,45.2,37.4,39.8,33.2,27.5,80,64,36,30.05,29.62,14,2,14,0.00
2013-4-6,45.7,38.0,29.6,28.1,17.1,9.8,73,45,24,30.32,29.85,21,3,21,0.00
2013-4-7,53.8,41.0,26.4,42.2,31.2,21.7,91,70,34,30.31,30.00,27,2,31,0.00
2013-4-8,64.9,51.4,43.6,45.4,42.3,38.9,95,73,46,30.10,29.94,16,1,18,0.00
2013-4-9,74.3,54.6,45.1,55.8,45.9,38.6,94,75,41,30.08,29.83,17,1,21,0.00
2013-4-10,63.4,50.1,44.0,50.2,45.0,41.2,96,84,60,30.01,29.85,7,1,7,0.14
2013-4-11,51.9,45.8,41.5,45.7,41.5,36.6,97,86,64,30.13,29.80,10,1,10,0.05
2013-4-12,41.5,39.1,36.9,40.1,36.3,32.2,97,90,73,30.15,29.73,16,3,16,0.58
2013-4-13,52.6,41.2,37.1,42.2,37.8,35.5,97,88,63,29.92,29.71,16,2,17,0.02
2013-4-14,55.4,45.1,37.5,42.3,34.9,28.4,96,70,45,30.19,29.91,16,2,16,0.00
2013-4-15,55.2,44.6,32.5,40.7,35.2,28.8,87,70,53,30.39,30.19,12,1,12,0.00
2013-4-16,63.9,49.8,34.6,49.1,41.7,33.3,96,76,47,30.40,30.07,27,3,27,0.00
2013-4-17,66.2,57.1,44.5,52.4,42.3,33.6,91,61,33,30.31,30.05,17,2,17,0.00
2013-4-18,64.3,50.6,37.1,45.5,37.3,30.4,93,64,38,30.41,30.15,18,2,18,0.00
2013-4-19,73.2,62.3,51.5,64.0,58.9,45.9,97,89,72,30.15,29.69,33,4,33,0.06
2013-4-20,63.0,54.2,45.8,62.1,45.1,29.1,97,74,43,30.19,29.62,31,3,31,0.52
2013-4-21,52.0,42.0,33.3,31.0,26.5,21.6,86,55,35,30.66,30.19,17,2,17,0.00
2013-4-22,50.1,41.1,31.7,38.2,32.7,27.8,92,73,45,30.73,30.56,16,2,16,0.00
2013-4-23,42.6,41.2,39.5,41.4,39.2,32.8,97,93,76,30.56,30.07,17,3,17,0.27
2013-4-24,69.4,51.6,42.0,55.3,46.3,41.2,97,84,55,30.07,29.81,22,4,22,0.05
2013-4-25,64.5,54.0,42.4,51.5,42.3,32.1,95,68,32,30.24,29.84,28,2,28,0.06
2013-4-26,57.9,48.5,41.6,42.7,39.7,35.8,95,73,52,30.41,30.23,11,1,11,0.00
2013-4-27,63.4,49.8,36.8,45.0,38.2,33.6,97,68,39,30.40,30.30,11,1,11,0.00
2013-4-28,68.5,52.7,35.7,43.5,37.8,33.3,92,61,34,30.34,30.22,15,1,15,0.00
2013-4-29,69.4,54.4,42.2,47.7,38.4,26.5,95,60,29,30.28,30.19,16,1,16,0.00
2013-4-30,67.8,52.7,37.7,42.7,32.5,25.4,89,51,21,30.36,30.25,12,0,12,0.00
2013-5-1,66.7,52.3,35.8,44.8,38.0,31.9,89,62,30,30.46,30.35,7,0,7,0.00
2013-5-2,74.2,52.9,39.6,49.8,43.0,37.7,95,73,32,30.46,30.36,12,1,12,0.00
2013-5-3,54.2,47.1,42.8,45.2,42.0,40.1,93,83,69,30.50,30.35,11,2,11,0.00
2013-5-4,55.2,45.9,36.8,44.9,39.9,35.0,96,81,59,30.35,30.30,10,1,10,0.00
2013-5-5,58.7,47.0,34.9,44.7,40.3,33.0,96,79,55,30.31,30.25,9,1,9,0.00
2013-5-6,66.7,51.5,37.4,53.2,45.9,35.8,97,83,57,30.29,30.15,9,0,9,0.00
2013-5-7,76.9,60.7,42.5,62.2,52.9,41.4,97,78,55,30.17,30.09,12,1,12,0.00
2013-5-8,74.0,61.1,52.2,66.1,58.0,51.2,98,90,67,30.19,30.04,15,1,15,0.28
2013-5-9,65.3,59.1,56.7,62.3,58.2,56.1,99,97,88,30.04,29.87,5,0,5,0.21
2013-5-10,75.9,64.5,56.0,64.1,58.4,54.6,99,82,60,29.95,29.88,9,0,9,0.00
2013-5-11,73.3,61.9,57.6,63.6,58.9,54.2,98,90,70,29.92,29.70,21,1,21,0.10
2013-5-12,72.0,61.0,49.9,61.6,54.1,33.9,98,80,48,29.81,29.55,15,1,15,0.05
2013-5-13,62.4,50.8,37.9,39.9,35.1,29.9,89,57,37,30.01,29.81,16,1,16,0.00
2013-5-14,57.9,49.7,40.0,39.2,34.5,31.4,80,57,40,30.03,29.95,11,1,11,0.00
2013-5-15,66.3,51.0,34.0,53.4,41.3,31.8,92,73,37,30.05,29.67,15,1,18,0.01
2013-5-16,81.8,65.4,48.8,52.7,48.6,42.0,97,62,26,29.78,29.62,16,1,16,0.00
2013-5-17,66.8,57.9,49.3,50.5,45.3,42.1,87,64,46,30.21,29.78,12,1,12,0.00
2013-5-18,71.1,57.4,42.1,51.0,46.0,40.5,95,69,37,30.30,30.21,4,0,11,0.00
2013-5-19,71.3,57.2,46.0,56.1,50.8,44.4,97,81,51,30.34,30.22,13,0,13,0.08
2013-5-20,81.3,66.5,54.9,68.0,62.0,54.1,98,87,59,30.22,29.91,10,1,10,0.04
2013-5-21,82.1,61.3,51.4,71.7,58.8,50.6,98,92,68,29.98,29.85,6,1,7,0.05
2013-5-22,64.1,55.4,50.2,61.1,54.0,49.4,98,95,87,30.02,29.88,7,0,7,0.00
2013-5-23,77.0,65.6,55.6,69.7,63.4,54.8,99,93,76,29.92,29.82,21,2,21,0.02
2013-5-24,67.8,62.4,51.8,65.2,61.3,50.7,98,96,90,29.82,29.65,13,1,13,0.70
2013-5-25,52.4,48.4,41.4,51.6,47.7,40.3,98,97,96,29.78,29.67,17,2,19,0.35
2013-5-26,59.0,48.0,39.5,46.5,41.7,38.0,96,80,55,30.08,29.70,17,2,17,0.03
2013-5-27,71.3,56.4,39.7,48.2,42.6,38.1,95,65,32,30.16,30.05,17,1,17,0.00
2013-5-28,73.1,59.0,44.1,57.8,48.5,42.3,94,71,42,30.23,30.16,9,0,9,0.00
2013-5-29,72.3,61.9,57.6,67.5,60.1,54.5,98,94,83,30.19,29.99,9,0,9,0.98
2013-5-30,85.8,73.9,63.1,73.1,67.8,62.5,99,83,58,30.07,29.99,12,1,12,0.01
2013-5-31,92.8,78.0,63.4,73.7,68.1,62.4,98,75,45,30.08,29.93,11,0,11,0.00
2013-6-1,89.5,76.3,63.9,73.7,66.8,61.9,94,74,53,29.98,29.87,16,1,16,0.00
2013-6-2,86.2,73.1,65.0,71.5,65.8,62.5,92,79,56,29.90,29.76,26,2,26,0.00
2013-6-3,71.0,66.1,59.9,69.1,64.6,58.5,98,95,89,29.85,29.76,11,0,11,0.57
2013-6-4,70.2,60.6,51.0,58.5,49.4,43.9,96,68,47,30.08,29.80,12,1,13,0.00
2013-6-5,72.7,60.1,47.4,54.5,49.7,44.2,93,70,44,30.18,30.08,9,0,9,0.00
2013-6-6,73.8,62.0,52.0,58.8,53.8,50.1,96,76,48,30.18,30.09,7,0,7,0.00
2013-6-7,58.1,55.4,53.0,57.4,54.6,51.9,100,97,90,30.12,29.77,5,0,5,1.78
2013-6-8,75.9,62.5,54.2,68.3,59.2,53.5,99,90,70,29.99,29.57,11,1,11,0.73
2013-6-9,78.5,66.6,56.5,64.8,58.8,55.4,97,78,51,30.15,29.99,11,0,11,0.00
2013-6-10,66.8,60.3,53.8,60.8,57.5,52.4,98,91,74,30.19,30.00,4,0,4,0.39
2013-6-11,64.9,59.4,53.7,64.5,58.4,52.9,99,97,89,30.00,29.56,7,0,7,1.30
2013-6-12,69.5,59.8,54.2,59.8,56.8,53.5,100,90,66,29.80,29.55,16,1,16,0.04
2013-6-13,64.8,56.5,51.5,60.0,54.6,50.1,98,93,76,29.81,29.64,4,0,4,0.25
2013-6-14,69.2,57.9,51.9,60.1,54.5,50.9,98,89,66,29.75,29.60,9,1,9,0.74
2013-6-15,77.3,65.6,55.7,56.6,53.1,46.6,90,67,38,29.93,29.75,10,1,10,0.00
2013-6-16,75.0,64.2,50.9,62.6,56.1,49.0,95,77,47,29.93,29.72,11,1,11,0.00
2013-6-17,85.2,69.4,58.2,68.6,62.3,56.6,98,81,45,29.91,29.77,18,1,18,0.33
2013-6-18,74.2,61.9,57.1,69.5,60.1,56.1,100,94,74,29.96,29.87,6,0,6,0.28
2013-6-19,69.5,61.1,53.2,60.1,55.0,49.6,98,82,52,30.14,29.87,5,0,5,0.02
2013-6-20,75.7,64.0,50.5,64.0,55.6,49.4,97,76,49,30.25,30.14,10,0,10,0.00
2013-6-21,81.0,67.5,55.9,70.3,60.7,54.3,95,80,60,30.26,30.18,9,0,9,0.01
2013-6-22,82.2,69.1,58.5,67.7,60.3,55.1,91,75,53,30.22,30.12,12,1,12,0.00
2013-6-23,87.3,73.9,64.0,74.6,67.2,61.0,92,81,62,30.16,30.00,19,1,19,0.00
2013-6-24,91.3,78.4,68.5,77.0,71.3,67.4,97,81,57,30.03,29.86,10,1,14,0.19
2013-6-25,89.3,76.9,66.7,76.2,70.3,66.1,99,82,54,29.91,29.73,11,1,11,0.00
2013-6-26,84.7,72.9,66.6,73.9,69.6,65.9,98,90,67,29.84,29.71,6,0,6,0.61
2013-6-27,66.5,64.4,62.8,66.2,63.9,62.2,100,99,98,29.86,29.75,3,0,3,0.01
2013-6-28,77.8,69.6,63.3,74.6,68.4,63.0,100,96,84,29.75,29.51,15,1,15,0.67
2013-6-29,80.3,72.9,69.4,72.9,69.7,67.4,100,90,67,29.73,29.52,17,1,17,0.01
2013-6-30,81.0,73.2,69.6,74.3,70.1,68.1,97,90,78,29.94,29.73,12,1,12,0.23
2013-7-1,80.4,73.1,70.3,76.0,71.8,69.4,99,96,83,30.09,29.94,13,1,13,0.10
2013-7-2,81.6,71.8,62.5,75.9,69.6,61.2,98,93,79,30.19,30.08,12,1,12,0.00
2013-7-3,87.3,74.1,62.7,77.1,70.0,61.5,98,88,67,30.20,30.13,12,1,12,0.00
2013-7-4,90.8,80.3,71.2,79.3,74.4,70.3,98,83,62,30.20,30.08,12,1,12,0.00
2013-7-5,91.5,81.1,71.8,79.5,74.5,70.3,96,81,60,30.16,30.03,10,1,10,0.00
2013-7-6,90.1,80.1,71.3,79.0,73.8,70.1,97,82,63,30.07,29.96,9,0,10,0.00
2013-7-7,90.5,78.1,69.2,78.9,72.2,67.1,96,83,62,30.01,29.89,7,0,7,0.00
2013-7-8,83.2,74.0,65.7,77.2,70.9,64.8,98,91,77,30.05,29.90,7,0,8,0.01
2013-7-9,71.3,67.4,65.0,68.2,65.7,64.1,98,95,88,30.09,30.03,3,0,3,0.00
2013-7-10,83.8,73.7,66.1,78.0,71.4,64.7,99,93,76,30.06,29.80,9,0,14,0.79
2013-7-11,76.8,73.8,70.8,75.3,72.4,69.9,99,96,89,29.91,29.77,9,0,9,0.15
2013-7-12,70.8,67.5,64.3,70.2,64.5,61.8,98,91,81,30.18,29.90,7,1,7,0.00
2013-7-13,76.0,68.0,64.3,72.8,66.8,63.6,99,96,86,30.30,30.17,2,0,2,0.02
2013-7-14,86.5,76.1,68.7,78.3,73.4,68.1,99,92,68,30.29,30.19,9,0,9,0.00
2013-7-15,90.8,77.8,70.6,77.4,73.0,69.7,98,86,60,30.19,30.09,3,0,3,0.00
2013-7-16,88.8,78.1,70.5,76.6,70.9,67.4,97,79,59,30.16,30.09,5,0,5,0.00
2013-7-17,90.5,78.6,67.9,78.6,71.7,66.6,96,80,62,30.17,30.00,9,0,9,0.00
2013-7-18,86.0,78.8,71.8,77.0,72.8,69.4,93,82,65,30.01,29.94,8,0,8,0.00
2013-7-19,95.3,82.7,72.9,80.4,76.1,72.0,98,82,55,29.94,29.72,15,1,15,0.00
2013-7-20,92.3,82.1,75.7,80.4,76.6,73.0,95,84,65,29.76,29.62,14,1,14,0.09
2013-7-21,79.9,72.3,67.3,72.9,68.5,64.9,98,88,69,29.98,29.80,2,0,5,0.00
2013-7-22,78.7,71.3,66.3,72.4,68.6,65.4,99,91,73,30.00,29.87,4,0,4,0.00
2013-7-23,83.0,73.0,69.0,78.6,71.7,68.1,99,96,81,29.87,29.52,9,0,14,0.87
2013-7-24,83.3,74.9,68.3,75.4,70.5,60.6,99,87,69,29.92,29.57,6,0,7,0.00
2013-7-25,68.1,62.0,60.1,61.2,58.5,55.2,98,89,75,30.07,29.92,7,1,7,0.04
2013-7-26,66.8,63.9,61.6,66.5,63.4,60.9,99,98,97,30.03,29.90,9,1,11,0.43
2013-7-27,82.0,69.0,61.5,74.0,65.3,60.8,99,89,60,30.06,30.00,9,0,10,0.22
2013-7-28,75.1,68.8,65.1,72.9,67.8,64.2,99,97,89,30.01,29.95,4,0,4,0.08
2013-7-29,79.0,71.7,67.3,75.9,70.0,66.1,98,94,79,30.03,29.97,5,0,7,0.04
2013-7-30,80.7,70.1,61.8,68.9,64.3,59.0,98,84,51,30.08,30.01,7,0,9,0.04
2013-7-31,79.0,68.7,59.0,68.4,62.5,57.5,96,82,58,30.12,30.04,5,0,5,0.02
2013-8-1,80.3,68.7,60.3,68.1,63.4,59.5,98,84,60,30.05,29.88,9,0,10,0.01
2013-8-2,81.2,69.6,63.1,72.0,64.8,61.0,98,86,59,29.89,29.78,9,0,9,0.03
2013-8-3,75.7,69.4,64.7,67.6,64.9,62.8,98,86,70,29.87,29.78,10,0,10,0.02
2013-8-4,79.2,66.2,58.8,65.6,59.8,56.4,94,81,50,29.87,29.76,9,0,11,0.01
2013-8-5,74.1,63.9,54.9,57.0,53.0,46.8,90,70,40,30.04,29.87,14,1,14,0.01
2013-8-6,76.5,63.1,49.5,61.8,54.7,47.6,94,76,52,30.15,30.03,4,0,4,0.00
2013-8-7,79.8,65.3,54.4,63.0,56.9,52.7,97,77,47,30.18,30.11,9,0,9,0.00
2013-8-8,79.0,69.7,60.4,72.8,66.1,55.2,98,89,77,30.14,30.01,10,0,10,0.19
2013-8-9,73.4,72.3,70.5,73.1,71.3,69.0,99,96,91,30.03,29.75,13,1,14,1.07
2013-8-10,81.7,72.4,62.3,72.9,65.4,55.7,99,81,50,29.99,29.78,14,1,14,0.13
2013-8-11,77.5,65.7,55.3,62.1,57.7,53.6,95,77,51,30.07,29.99,7,0,7,0.43
2013-8-12,80.3,68.0,58.4,66.0,61.5,56.2,97,81,51,30.03,29.91,4,0,8,0.00
2013-8-13,71.5,66.4,61.4,68.4,64.4,60.3,97,93,79,29.92,29.68,3,0,3,0.01
2013-8-14,73.4,65.5,59.7,62.0,57.6,53.4,96,77,54,29.95,29.65,15,1,15,0.00
2013-8-15,75.3,63.1,52.4,59.2,54.6,50.1,94,76,47,30.11,29.95,7,0,9,0.00
2013-8-16,77.5,64.4,52.3,63.0,57.0,50.9,96,79,51,30.19,30.10,7,0,7,0.00
2013-8-17,76.7,64.6,54.4,64.2,58.9,52.6,96,83,59,30.27,30.19,4,0,5,0.00
2013-8-18,78.8,66.0,57.0,66.2,61.5,55.6,97,87,55,30.26,30.08,4,0,4,0.03
2013-8-19,80.2,67.2,56.4,67.7,61.9,55.6,99,85,52,30.08,29.94,9,0,9,0.00
2013-8-20,84.0,71.8,62.2,70.8,64.4,59.3,95,79,54,30.08,29.97,5,0,5,0.00
2013-8-21,86.5,72.5,59.5,71.6,65.5,58.4,97,81,54,30.13,30.02,6,0,6,0.00
2013-8-22,82.7,71.5,63.1,74.3,68.2,61.8,98,90,70,30.04,29.82,15,1,15,0.00
2013-8-23,77.0,68.8,59.6,69.1,62.4,57.1,95,81,58,30.09,29.81,7,0,7,0.00
2013-8-24,72.5,62.1,53.2,57.9,52.4,45.8,92,73,43,30.32,30.09,6,0,6,0.00
2013-8-25,81.0,64.4,49.5,60.8,54.7,47.6,95,74,43,30.35,30.19,7,0,7,0.00
2013-8-26,81.3,69.7,61.5,68.1,63.7,57.3,90,82,62,30.19,29.87,10,1,10,0.00
2013-8-27,76.5,69.3,63.3,70.9,67.3,62.3,100,94,79,29.88,29.82,5,0,5,0.05
2013-8-28,79.7,66.8,59.3,71.8,64.0,58.1,98,91,69,29.96,29.85,3,0,3,0.00
2013-8-29,64.4,62.6,59.4,63.8,61.7,57.3,98,97,93,30.06,29.94,5,0,5,0.01
2013-8-30,78.7,67.3,59.0,69.6,63.7,57.1,96,89,70,30.01,29.83,7,0,7,0.00
2013-8-31,78.8,72.6,67.8,74.5,70.4,66.6,98,93,83,29.84,29.79,10,1,10,0.00
2013-9-1,77.2,72.5,70.0,75.3,71.2,69.0,99,96,90,29.89,29.79,9,0,9,0.26
2013-9-2,79.9,73.4,71.8,75.7,72.2,70.8,98,96,86,29.87,29.71,4,0,8,0.24
2013-9-3,80.6,72.1,65.3,73.6,69.7,63.1,98,92,75,29.80,29.67,8,0,8,0.00
2013-9-4,78.7,67.0,58.5,65.5,60.1,56.5,95,80,50,29.91,29.79,11,0,11,0.00
2013-9-5,64.3,59.9,51.9,63.7,57.7,50.1,100,93,79,30.12,29.86,5,0,6,0.09
2013-9-6,67.9,55.5,47.6,51.6,47.6,43.6,95,77,44,30.23,30.08,6,0,6,0.00
2013-9-7,77.0,60.5,45.2,61.0,52.5,43.9,96,77,47,30.09,29.85,12,0,12,0.00
2013-9-8,74.6,63.9,52.9,64.9,55.4,43.1,95,75,48,30.07,29.73,12,1,12,0.00
2013-9-9,68.1,55.9,46.0,53.8,47.6,42.3,92,75,49,30.23,30.07,9,0,9,0.00
2013-9-10,73.8,64.8,51.2,68.8,61.7,49.8,95,90,83,30.16,30.02,15,1,15,0.00
2013-9-11,91.5,77.5,68.8,79.1,72.5,67.6,98,86,60,30.07,29.94,12,1,12,0.00
2013-9-12,84.2,74.4,69.0,75.8,70.4,67.8,97,88,69,29.97,29.67,15,1,15,0.08
2013-9-13,77.1,68.2,60.2,70.0,66.2,57.5,98,94,73,29.73,29.56,5,0,5,0.17
2013-9-14,66.5,60.4,52.9,59.3,55.3,50.0,92,83,71,30.04,29.73,6,0,6,0.00
2013-9-15,70.1,57.6,48.2,57.8,52.2,46.3,97,84,58,30.15,30.04,6,0,7,0.00
2013-9-16,65.3,55.9,50.5,58.1,52.5,42.1,97,89,69,30.21,30.01,10,0,10,0.01
2013-9-17,57.9,50.3,43.1,46.2,42.5,39.2,94,76,53,30.40,30.21,10,1,10,0.00
2013-9-18,71.5,54.1,39.2,51.6,45.5,37.3,99,76,42,30.31,30.13,7,0,7,0.00
2013-9-19,75.8,58.8,45.2,60.7,52.7,43.8,97,82,48,30.14,30.02,4,0,4,0.00
2013-9-20,76.2,60.8,48.1,64.0,55.1,46.8,97,83,49,30.08,29.99,4,0,4,0.00
2013-9-21,74.3,65.0,53.9,65.9,61.1,52.2,100,88,68,30.03,29.74,16,1,16,0.00
2013-9-22,70.5,64.9,54.3,66.9,59.8,47.8,96,84,65,29.80,29.61,15,1,15,0.58
2013-9-23,62.0,53.3,46.6,49.7,44.8,40.3,85,73,56,29.98,29.80,12,1,14,0.00
2013-9-24,63.4,51.7,41.4,51.0,44.6,39.1,92,78,54,29.98,29.80,11,0,11,0.00
2013-9-25,62.3,52.8,41.5,51.5,47.5,39.9,96,83,61,29.96,29.87,6,0,6,0.00
2013-9-26,61.7,55.4,51.2,52.4,50.4,48.7,93,84,69,30.10,29.96,5,0,5,0.00
2013-9-27,63.0,56.5,47.7,55.5,51.9,45.8,94,85,69,30.24,30.10,6,0,6,0.00
2013-9-28,68.3,55.3,46.4,59.9,52.2,44.2,97,90,72,30.31,30.23,4,0,4,0.00
2013-9-29,62.9,52.0,43.9,54.1,48.5,42.3,97,89,67,30.25,30.10,3,0,3,0.00
2013-9-30,63.1,55.2,47.7,56.5,52.0,45.5,97,89,71,30.10,29.95,3,0,3,0.00
2013-10-1,72.0,56.2,44.8,57.3,50.5,42.6,97,83,56,29.95,29.84,5,0,5,0.00
2013-10-2,78.4,63.1,50.3,63.5,56.8,48.4,98,81,58,29.94,29.81,15,1,15,0.00
2013-10-3,76.2,61.4,51.9,56.5,53.1,48.8,95,77,39,30.07,29.94,5,0,5,0.00
2013-10-4,62.5,55.4,47.8,59.5,53.4,45.4,96,93,87,30.08,30.01,1,0,1,0.30
2013-10-5,65.0,59.6,55.7,60.9,57.0,54.3,98,91,75,30.11,30.03,3,0,3,0.00
2013-10-6,59.0,57.5,55.5,57.9,56.4,54.4,97,96,93,30.20,30.10,2,0,2,0.14
2013-10-7,74.0,67.3,58.0,70.7,65.5,57.2,99,94,83,30.11,29.83,21,1,21,0.12
2013-10-8,63.3,57.4,50.0,58.8,49.1,45.3,86,74,55,30.34,29.89,10,1,10,0.00
2013-10-9,59.2,52.6,46.9,49.1,46.3,44.1,90,79,66,30.44,30.34,4,0,5,0.00
2013-10-10,61.1,54.0,46.7,56.0,51.2,43.9,97,90,81,30.34,30.15,3,0,3,0.00
2013-10-11,63.3,57.1,51.2,56.8,53.3,48.5,96,88,69,30.15,30.09,5,0,5,0.00
2013-10-12,59.7,55.9,51.9,57.8,53.4,49.6,97,92,85,30.37,30.12,7,0,7,0.00
2013-10-13,59.2,52.8,41.8,50.7,47.5,38.6,90,82,70,30.42,30.34,4,0,5,0.00
2013-10-14,62.2,47.9,34.4,51.2,42.4,32.0,97,83,54,30.39,30.24,3,0,3,0.00
2013-10-15,66.3,54.7,46.0,55.0,49.7,43.8,96,84,64,30.25,30.16,4,0,4,0.00
2013-10-16,61.1,54.3,47.6,58.5,52.3,45.4,97,93,87,30.16,29.89,0,0,0,0.00
2013-10-17,68.8,60.3,54.1,61.8,57.4,53.0,98,91,76,29.91,29.73,9,0,10,0.00
2013-10-18,66.7,60.7,49.5,62.3,53.3,44.1,99,78,54,29.90,29.61,14,1,14,0.03
2013-10-19,63.7,52.0,39.2,49.0,44.1,36.9,95,76,50,29.97,29.76,5,0,12,0.00
2013-10-20,60.9,52.6,40.7,49.1,42.1,35.0,94,70,40,30.01,29.69,15,1,15,0.00
2013-10-21,64.7,49.0,35.2,45.1,39.6,32.2,93,72,44,30.11,29.99,10,0,10,0.00
2013-10-22,67.8,54.5,43.0,54.5,46.9,39.8,97,77,52,29.99,29.69,13,1,13,0.00
2013-10-23,52.2,46.0,38.2,40.3,37.4,34.7,90,72,55,29.79,29.58,6,0,6,0.00
2013-10-24,52.3,44.4,36.9,37.4,32.5,27.9,83,64,42,29.88,29.61,13,1,13,0.00
2013-10-25,48.7,39.6,30.9,35.8,30.2,26.9,91,70,51,30.14,29.87,11,1,11,0.00
2013-10-26,54.6,41.5,28.3,37.6,32.0,25.2,92,71,45,30.15,29.87,25,1,25,0.00
2013-10-27,54.0,46.3,40.4,42.7,36.9,31.4,93,71,50,30.05,29.81,12,1,12,0.04
2013-10-28,57.7,44.2,31.1,38.6,33.0,27.3,91,67,46,30.32,30.05,14,1,15,0.00
2013-10-29,48.2,39.3,30.6,36.9,31.3,26.5,92,73,56,30.41,30.32,5,0,5,0.00
2013-10-30,48.6,39.1,30.3,46.3,36.7,26.9,95,91,87,30.35,30.18,3,0,3,0.06
2013-10-31,62.4,48.6,33.1,60.1,46.5,31.3,98,92,86,30.23,29.80,15,1,15,0.04
2013-11-1,69.4,63.2,57.9,64.8,59.7,54.3,97,89,80,29.81,29.47,40,3,40,0.17
2013-11-2,63.9,56.0,50.8,54.5,49.5,46.4,94,80,54,29.71,29.58,6,0,6,0.00
2013-11-3,53.0,42.7,34.7,47.4,37.6,24.6,100,83,60,30.38,29.70,9,1,10,0.03
2013-11-4,40.1,33.8,26.9,29.7,25.8,23.2,87,73,59,30.68,30.38,10,1,10,0.01
2013-11-5,48.3,37.3,27.1,36.0,30.0,23.8,92,76,49,30.69,30.50,8,0,8,0.00
2013-11-6,57.8,47.6,35.8,51.5,42.6,32.6,94,83,60,30.51,30.03,15,1,15,0.00
2013-11-7,64.3,54.8,42.3,61.0,52.6,35.5,97,92,75,30.03,29.66,17,2,17,0.38
2013-11-8,47.2,39.5,32.3,36.5,30.1,24.0,84,69,55,30.08,29.80,14,2,14,0.00
2013-11-9,44.6,37.2,29.3,30.7,26.5,23.9,80,66,47,30.18,30.04,15,1,15,0.00
2013-11-10,52.4,44.1,37.9,46.0,38.5,30.7,95,81,64,30.04,29.72,12,0,12,0.10
2013-11-11,49.7,44.2,37.3,40.0,32.0,28.1,82,63,44,30.08,29.83,14,1,14,0.00
2013-11-12,49.6,37.0,28.1,39.8,28.5,17.9,92,72,60,30.16,29.87,21,2,21,0.08
2013-11-13,34.8,28.8,24.9,19.2,17.3,15.4,76,62,49,30.25,30.15,14,1,14,0.00
2013-11-14,48.8,37.3,25.7,28.0,23.5,16.7,70,58,41,30.17,30.02,12,1,12,0.00
2013-11-15,58.2,43.5,29.7,40.4,30.8,20.9,86,63,34,30.19,30.10,15,1,15,0.00
2013-11-16,55.8,44.6,35.0,39.4,35.9,30.4,86,73,46,30.31,30.18,6,0,6,0.00
2013-11-17,60.9,47.6,35.0,56.8,43.6,30.4,97,86,69,30.30,29.84,7,0,7,0.10
2013-11-18,63.2,57.7,47.5,62.2,51.5,36.9,98,81,53,29.84,29.53,24,1,24,0.53
2013-11-19,48.2,39.7,31.5,38.2,25.9,19.6,71,58,48,30.25,29.64,20,3,20,0.00
2013-11-20,38.8,32.0,26.1,19.9,18.5,16.8,76,58,43,30.59,30.25,15,1,15,0.00
2013-11-21,45.2,35.1,26.3,30.5,24.7,18.6,77,66,48,30.61,30.36,6,0,6,0.00
2013-11-22,47.9,43.0,37.0,46.8,40.3,30.5,96,90,77,30.36,29.80,4,0,4,0.25
2013-11-23,46.4,40.8,29.7,45.3,29.4,18.6,96,65,41,29.87,29.77,19,3,19,0.00
2013-11-24,29.6,24.5,20.6,18.9,7.5,-0.0,71,49,34,30.16,29.75,26,6,26,0.00
2013-11-25,31.2,23.7,16.8,18.1,5.4,0.4,68,46,28,30.34,30.16,17,1,17,0.00
2013-11-26,44.0,37.0,27.3,42.8,27.1,18.1,96,68,51,30.31,30.02,14,0,14,0.17
2013-11-27,61.4,52.1,37.5,60.8,51.2,35.0,98,97,91,30.02,29.18,25,3,25,2.35
2013-11-28,37.4,30.9,23.4,35.0,20.1,12.0,91,65,45,30.42,29.44,20,3,21,0.00
2013-11-29,32.2,26.8,22.5,18.6,15.0,10.5,77,61,47,30.71,30.41,11,1,11,0.00
2013-11-30,33.2,26.5,20.8,24.8,18.8,12.2,83,73,58,30.75,30.42,5,0,7,0.00
2013-12-1,47.2,39.6,29.4,42.2,36.1,24.9,95,87,78,30.43,29.97,9,0,9,0.22
2013-12-2,40.4,38.3,37.0,39.6,37.3,36.0,97,96,95,29.97,29.89,7,0,7,0.01
2013-12-3,43.9,37.8,33.2,38.5,35.3,30.6,96,91,78,29.92,29.82,11,1,11,0.00
2013-12-4,43.5,34.5,29.2,32.2,29.3,26.3,94,82,61,30.18,29.92,9,0,9,0.00
2013-12-5,54.6,43.6,29.2,54.0,41.8,26.6,98,93,88,30.19,29.90,14,0,14,0.02
2013-12-6,55.7,49.1,36.9,55.0,47.6,35.2,100,94,86,30.11,29.84,14,1,14,0.37
2013-12-7,40.7,34.2,28.5,36.5,29.1,20.1,100,82,64,30.42,30.05,12,1,12,0.14
2013-12-8,31.8,28.7,23.6,21.8,19.2,16.5,78,67,57,30.57,30.42,7,0,7,0.00
2013-12-9,41.2,35.8,29.4,40.4,33.9,21.0,97,93,70,30.47,29.85,9,0,9,0.29
2013-12-10,34.5,30.8,22.7,33.5,29.7,20.8,96,96,94,29.99,29.75,5,0,5,0.01
2013-12-11,30.1,24.1,19.7,24.3,20.5,18.0,94,86,73,30.21,29.99,12,0,12,0.00
2013-12-12,23.6,19.7,11.3,20.2,11.2,6.1,89,70,47,30.25,30.06,15,1,15,0.00
2013-12-13,29.4,21.5,10.6,17.0,13.1,5.9,86,70,55,30.35,29.98,17,1,17,0.00
2013-12-14,29.7,19.2,13.2,28.1,13.1,2.7,94,77,62,30.57,30.09,10,1,10,0.00
2013-12-15,39.6,29.8,23.6,38.8,28.2,20.8,100,93,89,30.09,29.32,19,2,19,0.07
2013-12-16,27.7,23.3,16.0,22.4,14.7,9.0,93,71,49,30.19,29.74,20,2,20,0.00
2013-12-17,31.6,18.4,6.9,30.3,14.9,3.3,95,86,72,30.26,29.87,12,0,12,0.00
2013-12-18,32.2,25.4,19.8,24.2,21.2,17.9,94,84,67,30.07,29.80,13,2,13,0.00
2013-12-19,42.6,31.6,21.8,30.4,25.3,18.8,90,78,60,30.10,29.94,16,1,16,0.01
2013-12-20,50.7,39.8,30.1,40.8,34.2,26.9,91,81,66,30.11,29.90,15,1,15,0.60
2013-12-21,55.5,48.7,41.8,49.7,45.6,37.6,96,89,79,29.97,29.86,16,2,16,0.31
2013-12-22,62.4,49.1,38.6,60.2,47.4,37.3,99,94,75,30.00,29.78,21,2,21,0.00
2013-12-23,40.3,37.0,33.9,39.2,36.1,32.9,97,96,96,30.07,29.92,9,1,9,0.64
2013-12-24,37.7,32.7,27.9,36.9,26.2,18.3,97,77,64,30.17,30.01,13,2,13,0.00
2013-12-25,28.4,19.8,16.0,20.7,9.7,5.1,81,65,56,30.53,30.17,16,2,16,0.00
2013-12-26,38.3,28.5,16.6,34.5,25.2,11.8,99,87,78,30.48,30.06,9,0,9,0.09
2013-12-27,34.4,27.1,22.0,24.7,22.1,19.9,93,82,63,30.26,30.17,12,0,12,0.01
2013-12-28,45.5,33.4,23.7,32.7,26.3,20.7,92,76,55,30.21,29.98,18,1,18,0.01
2013-12-29,42.5,36.7,30.6,41.4,34.1,25.8,96,90,81,30.03,29.33,19,1,19,0.91
2013-12-30,39.9,33.1,22.0,37.5,26.6,13.6,97,78,50,30.13,29.48,18,2,18,0.00
2013-12-31,25.1,19.9,16.0,14.6,8.8,2.4,80,62,49,30.17,30.01,9,0,9,0.00
2014-1-1,27.2,21.5,16.2,14.7,10.7,7.9,78,63,48,30.36,30.17,12,1,12,0.00
2014-1-2,27.4,24.4,19.4,25.4,21.8,14.2,94,90,72,30.33,29.74,21,3,21,0.00